createdAt,value
2018-12-06T00:00:32.335Z,8.63
2018-12-06T00:02:59.830Z,6.73
2018-12-06T00:05:27.321Z,7.63
2018-12-06T00:08:14.160Z,7.40
2018-12-06T00:10:42.484Z,7.93
2018-12-06T00:13:10.580Z,7.67
2018-12-06T00:15:38.197Z,7.77
2018-12-06T00:18:05.688Z,6.40
2018-12-06T00:20:33.172Z,7.13
2018-12-06T00:23:00.688Z,6.70
2018-12-06T00:25:28.181Z,7.07
2018-12-06T00:27:55.668Z,7.23
2018-12-06T00:30:35.067Z,6.70
2018-12-06T00:33:03.088Z,6.83
2018-12-06T00:35:30.594Z,6.83
2018-12-06T00:37:58.202Z,7.37
2018-12-06T00:40:25.676Z,7.30
2018-12-06T00:42:53.219Z,7.27
2018-12-06T00:45:20.803Z,6.83
2018-12-06T00:47:48.289Z,6.50
2018-12-06T00:50:16.361Z,7.00
2018-12-06T00:52:44.088Z,7.60
2018-12-06T00:55:11.627Z,7.63
2018-12-06T00:57:39.113Z,7.03
2018-12-06T01:00:08.141Z,7.50
2018-12-06T01:02:35.719Z,7.93
2018-12-06T01:05:03.345Z,7.57
2018-12-06T01:07:30.981Z,7.50
2018-12-06T01:09:58.492Z,6.80
2018-12-06T01:12:26.135Z,7.70
2018-12-06T01:14:53.708Z,8.20
2018-12-06T01:17:21.197Z,7.80
2018-12-06T01:19:48.679Z,7.03
2018-12-06T01:22:16.371Z,7.70
2018-12-06T01:24:43.851Z,8.20
2018-12-06T01:27:11.333Z,7.23
2018-12-06T01:29:38.961Z,7.77
2018-12-06T01:32:06.447Z,8.03
2018-12-06T01:34:33.931Z,7.97
2018-12-06T01:37:01.445Z,7.63
2018-12-06T01:39:29.057Z,7.03
2018-12-06T01:41:56.541Z,8.57
2018-12-06T01:44:24.064Z,7.57
2018-12-06T01:46:51.547Z,7.17
2018-12-06T01:49:19.052Z,8.07
2018-12-06T01:51:46.582Z,7.60
2018-12-06T01:54:14.061Z,7.23
2018-12-06T01:56:41.557Z,7.17
2018-12-06T01:59:09.087Z,6.50
2018-12-06T02:01:36.590Z,7.87
2018-12-06T02:04:04.138Z,7.50
2018-12-06T02:06:31.655Z,7.90
2018-12-06T02:08:59.131Z,7.70
2018-12-06T02:11:26.616Z,7.60
2018-12-06T02:13:54.135Z,7.73
2018-12-06T02:16:21.623Z,7.50
2018-12-06T02:18:49.111Z,8.50
2018-12-06T02:21:16.621Z,8.50
2018-12-06T02:23:44.105Z,8.40
2018-12-06T02:26:11.589Z,8.40
2018-12-06T02:28:39.158Z,8.53
2018-12-06T02:31:06.652Z,8.83
2018-12-06T02:33:34.149Z,8.80
2018-12-06T02:36:01.728Z,8.60
2018-12-06T02:38:29.237Z,8.60
2018-12-06T02:40:56.753Z,9.20
2018-12-06T02:43:24.309Z,9.30
2018-12-06T02:45:51.795Z,8.90
2018-12-06T02:48:19.301Z,9.07
2018-12-06T02:50:46.922Z,9.17
2018-12-06T02:53:14.410Z,9.70
2018-12-06T02:55:41.930Z,8.73
2018-12-06T02:58:09.413Z,8.60
2018-12-06T03:00:36.927Z,8.80
2018-12-06T03:03:04.648Z,10.10
2018-12-06T03:05:32.260Z,7.50
2018-12-06T03:07:59.732Z,7.93
2018-12-06T03:10:27.316Z,8.07
2018-12-06T03:12:54.811Z,8.77
2018-12-06T03:15:22.427Z,8.00
2018-12-06T03:17:49.948Z,8.80
2018-12-06T03:20:17.454Z,8.50
2018-12-06T03:22:44.941Z,8.40
2018-12-06T03:25:12.471Z,8.40
2018-12-06T03:27:39.985Z,7.73
2018-12-06T03:30:07.709Z,9.43
2018-12-06T03:32:35.327Z,8.43
2018-12-06T03:35:02.976Z,9.50
2018-12-06T03:37:30.459Z,8.53
2018-12-06T03:39:58.075Z,8.63
2018-12-06T03:42:25.577Z,8.80
2018-12-06T03:44:53.176Z,9.20
2018-12-06T03:47:20.752Z,9.60
2018-12-06T03:49:48.247Z,10.17
2018-12-06T03:52:15.740Z,10.00
2018-12-06T03:54:43.269Z,9.57
2018-12-06T03:57:10.770Z,9.43
2018-12-06T03:59:38.291Z,8.50
2018-12-06T04:02:05.851Z,11.27
2018-12-06T04:04:33.340Z,9.67
2018-12-06T04:07:00.839Z,12.50
2018-12-06T04:09:28.677Z,10.53
2018-12-06T04:11:56.502Z,11.73
2018-12-06T04:14:24.120Z,11.10
2018-12-06T04:16:51.683Z,12.13
2018-12-06T04:19:19.213Z,10.50
2018-12-06T04:21:46.848Z,12.00
2018-12-06T04:24:14.381Z,12.00
2018-12-06T04:26:41.879Z,13.40
2018-12-06T04:29:09.396Z,13.63
2018-12-06T04:31:36.912Z,13.57
2018-12-06T04:34:04.580Z,11.63
2018-12-06T04:36:32.091Z,11.17
2018-12-06T04:38:59.634Z,11.93
2018-12-06T04:41:27.124Z,13.93
2018-12-06T04:43:54.646Z,12.43
2018-12-06T04:46:22.248Z,13.63
2018-12-06T04:48:49.747Z,13.77
2018-12-06T04:51:17.268Z,13.57
2018-12-06T04:53:45.369Z,13.47
2018-12-06T04:56:12.943Z,12.57
2018-12-06T04:58:40.469Z,12.63
2018-12-06T05:01:07.988Z,11.20
2018-12-06T05:03:35.489Z,13.80
2018-12-06T05:06:02.984Z,14.97
2018-12-06T05:08:30.572Z,13.67
2018-12-06T05:10:58.055Z,12.90
2018-12-06T05:13:25.563Z,11.93
2018-12-06T05:15:53.124Z,8.20
2018-12-06T05:18:20.677Z,12.37
2018-12-06T05:20:48.197Z,11.90
2018-12-06T05:23:15.727Z,11.90
2018-12-06T05:25:43.246Z,11.73
2018-12-06T05:28:10.731Z,11.77
2018-12-06T05:30:38.259Z,12.73
2018-12-06T05:33:06.217Z,13.27
2018-12-06T05:35:33.722Z,11.43
2018-12-06T05:38:01.232Z,11.03
2018-12-06T05:40:28.946Z,12.17
2018-12-06T05:42:56.462Z,7.73
2018-12-06T05:45:23.995Z,8.70
2018-12-06T05:47:51.480Z,13.83
2018-12-06T05:50:19.051Z,13.17
2018-12-06T05:52:46.576Z,17.03
2018-12-06T05:55:14.096Z,13.27
2018-12-06T05:57:41.633Z,12.50
2018-12-06T06:00:09.356Z,13.00
2018-12-06T06:02:36.852Z,12.67
2018-12-06T06:05:05.355Z,15.63
2018-12-06T06:07:32.879Z,16.97
2018-12-06T06:10:00.414Z,16.60
2018-12-06T06:12:27.904Z,16.80
2018-12-06T06:14:55.419Z,17.53
2018-12-06T06:17:22.922Z,13.97
2018-12-06T06:19:50.414Z,17.77
2018-12-06T06:22:18.020Z,15.97
2018-12-06T06:24:45.507Z,17.00
2018-12-06T06:27:13.008Z,14.60
2018-12-06T06:29:40.531Z,18.30
2018-12-06T06:32:08.053Z,16.27
2018-12-06T06:34:35.739Z,16.20
2018-12-06T06:37:03.239Z,16.47
2018-12-06T06:39:30.780Z,15.80
2018-12-06T06:41:58.318Z,16.20
2018-12-06T06:44:25.955Z,15.60
2018-12-06T06:46:53.460Z,15.33
2018-12-06T06:49:20.966Z,15.07
2018-12-06T06:51:48.460Z,16.63
2018-12-06T06:54:15.971Z,16.73
2018-12-06T06:56:43.568Z,17.53
2018-12-06T06:59:11.107Z,21.70
2018-12-06T07:01:38.667Z,19.40
2018-12-06T07:04:06.176Z,20.40
2018-12-06T07:06:33.736Z,22.67
2018-12-06T07:09:01.248Z,24.90
2018-12-06T07:11:28.749Z,24.87
2018-12-06T07:13:56.265Z,22.70
2018-12-06T07:16:23.825Z,26.50
2018-12-06T07:18:51.313Z,27.10
2018-12-06T07:21:18.838Z,27.37
2018-12-06T07:23:46.320Z,27.03
2018-12-06T07:26:13.848Z,28.50
2018-12-06T07:28:41.380Z,29.20
2018-12-06T07:31:08.889Z,30.73
2018-12-06T07:33:36.389Z,30.53
2018-12-06T07:36:05.327Z,27.87
2018-12-06T07:38:32.843Z,32.03
2018-12-06T07:41:00.361Z,31.77
2018-12-06T07:43:29.386Z,26.30
2018-12-06T07:45:58.858Z,26.43
2018-12-06T07:48:26.584Z,20.60
2018-12-06T07:50:54.192Z,28.10
2018-12-06T07:53:21.692Z,30.77
2018-12-06T07:55:49.253Z,22.07
2018-12-06T07:58:16.797Z,27.40
2018-12-06T08:00:44.615Z,32.50
2018-12-06T08:03:12.243Z,33.10
2018-12-06T08:05:39.928Z,29.27
2018-12-06T08:08:07.495Z,31.33
2018-12-06T08:10:34.989Z,21.00
2018-12-06T08:13:02.575Z,33.87
2018-12-06T08:15:30.071Z,30.93
2018-12-06T08:17:57.574Z,29.70
2018-12-06T08:20:25.106Z,23.40
2018-12-06T08:22:53.313Z,28.13
2018-12-06T08:25:20.825Z,28.60
2018-12-06T08:27:49.771Z,29.30
2018-12-06T08:30:19.146Z,26.73
2018-12-06T08:32:49.893Z,26.90
2018-12-06T08:35:17.556Z,26.13
2018-12-06T08:37:45.117Z,25.33
2018-12-06T08:40:12.670Z,26.70
2018-12-06T08:42:45.756Z,27.37
2018-12-06T08:45:09.812Z,22.77
2018-12-06T08:47:37.309Z,29.23
2018-12-06T08:50:05.258Z,27.70
2018-12-06T08:52:32.767Z,25.30
2018-12-06T08:55:00.286Z,25.20
2018-12-06T08:57:27.863Z,23.87
2018-12-06T08:59:55.351Z,23.70
2018-12-06T09:02:22.864Z,25.63
2018-12-06T09:04:51.456Z,26.63
2018-12-06T09:07:19.026Z,24.30
2018-12-06T09:09:46.629Z,25.90
2018-12-06T09:12:14.168Z,20.57
2018-12-06T09:14:41.660Z,23.77
2018-12-06T09:17:09.184Z,23.33
2018-12-06T09:19:36.753Z,17.73
2018-12-06T09:22:04.473Z,23.13
2018-12-06T09:24:32.007Z,23.73
2018-12-06T09:26:59.552Z,20.90
2018-12-06T09:29:27.050Z,17.73
2018-12-06T09:31:54.553Z,25.60
2018-12-06T09:34:22.096Z,18.03
2018-12-06T09:36:49.619Z,21.63
2018-12-06T09:39:17.194Z,21.20
2018-12-06T09:41:44.764Z,24.37
2018-12-06T09:44:12.258Z,19.70
2018-12-06T09:46:39.740Z,20.83
2018-12-06T09:49:07.339Z,21.57
2018-12-06T09:51:34.901Z,24.20
2018-12-06T09:54:02.454Z,21.93
2018-12-06T09:56:29.974Z,20.97
2018-12-06T09:58:57.460Z,15.17
2018-12-06T10:01:24.965Z,21.50
2018-12-06T10:03:52.561Z,20.57
2018-12-06T10:06:20.089Z,20.53
2018-12-06T10:08:47.587Z,18.27
2018-12-06T10:11:15.115Z,17.13
2018-12-06T10:13:42.621Z,15.70
2018-12-06T10:16:10.136Z,15.43
2018-12-06T10:18:38.611Z,15.23
2018-12-06T10:21:06.110Z,16.83
2018-12-06T10:23:33.601Z,13.10
2018-12-06T10:26:01.164Z,13.73
2018-12-06T10:28:28.657Z,9.97
2018-12-06T10:30:56.287Z,11.73
2018-12-06T10:33:23.809Z,14.47
2018-12-06T10:35:51.375Z,13.27
2018-12-06T10:38:18.885Z,12.97
2018-12-06T10:40:46.444Z,11.20
2018-12-06T10:43:14.212Z,13.33
2018-12-06T10:45:41.845Z,11.33
2018-12-06T10:48:09.401Z,11.87
2018-12-06T10:50:36.891Z,9.83
2018-12-06T10:53:04.938Z,9.50
2018-12-06T10:55:32.493Z,10.37
2018-12-06T10:57:59.988Z,10.50
2018-12-06T11:00:33.059Z,8.57
2018-12-06T11:06:09.772Z,8.47
2018-12-06T11:08:37.267Z,8.30
2018-12-06T11:11:04.785Z,7.33
2018-12-06T11:13:32.305Z,7.87
2018-12-06T11:15:59.796Z,8.67
2018-12-06T11:18:27.341Z,6.17
2018-12-06T11:20:54.862Z,7.73
2018-12-06T11:23:22.354Z,6.57
2018-12-06T11:25:49.949Z,7.70
2018-12-06T11:28:17.509Z,7.10
2018-12-06T11:30:45.002Z,6.93
2018-12-06T11:33:12.523Z,6.60
2018-12-06T11:35:40.854Z,7.43
2018-12-06T11:38:08.720Z,7.13
2018-12-06T11:40:36.254Z,7.10
2018-12-06T11:43:03.749Z,7.37
2018-12-06T11:45:31.257Z,8.27
2018-12-06T11:47:58.776Z,7.63
2018-12-06T11:50:26.358Z,8.60
2018-12-06T11:52:53.876Z,7.33
2018-12-06T11:55:21.450Z,7.23
2018-12-06T11:57:49.002Z,8.77
2018-12-06T12:00:16.502Z,8.77
2018-12-06T12:02:44.056Z,9.10
2018-12-06T12:05:11.557Z,6.97
2018-12-06T12:07:39.040Z,9.33
2018-12-06T12:10:06.636Z,8.20
2018-12-06T12:12:34.192Z,9.80
2018-12-06T12:15:01.758Z,7.97
2018-12-06T12:17:29.387Z,9.37
2018-12-06T12:19:56.969Z,8.90
2018-12-06T12:22:24.507Z,8.90
2018-12-06T12:24:52.036Z,8.77
2018-12-06T12:27:19.602Z,9.33
2018-12-06T12:29:47.111Z,9.13
2018-12-06T12:32:14.666Z,8.50
2018-12-06T12:34:42.168Z,6.23
2018-12-06T12:37:09.683Z,10.17
2018-12-06T12:39:37.212Z,9.23
2018-12-06T12:42:04.831Z,9.57
2018-12-06T12:44:32.728Z,8.58
2018-12-06T12:47:00.419Z,9.07
2018-12-06T12:49:27.936Z,9.53
2018-12-06T12:51:55.428Z,10.20
2018-12-06T12:54:22.941Z,10.60
2018-12-06T12:56:50.637Z,10.57
2018-12-06T12:59:18.212Z,9.40
2018-12-06T13:01:45.758Z,9.27
2018-12-06T13:04:13.272Z,11.07
2018-12-06T13:06:40.776Z,8.23
2018-12-06T13:09:08.359Z,9.90
2018-12-06T13:11:35.856Z,10.03
2018-12-06T13:14:03.579Z,9.77
2018-12-06T13:16:31.797Z,7.90
2018-12-06T13:18:59.288Z,9.90
2018-12-06T13:21:26.803Z,9.47
2018-12-06T13:23:54.331Z,8.67
2018-12-06T13:26:21.815Z,8.70
2018-12-06T13:28:49.307Z,8.47
2018-12-06T13:31:16.872Z,7.83
2018-12-06T13:33:44.604Z,9.10
2018-12-06T13:36:12.096Z,9.40
2018-12-06T13:38:39.781Z,7.73
2018-12-06T13:41:07.292Z,7.73
2018-12-06T13:43:34.836Z,8.13
2018-12-06T13:46:02.417Z,6.47
2018-12-06T13:48:29.997Z,8.07
2018-12-06T13:50:57.496Z,7.93
2018-12-06T13:53:25.024Z,7.87
2018-12-06T13:55:52.545Z,6.27
2018-12-06T13:58:20.021Z,8.20
2018-12-06T14:00:47.734Z,6.37
2018-12-06T14:03:15.348Z,6.87
2018-12-06T14:05:42.866Z,5.87
2018-12-06T14:08:10.379Z,6.83
2018-12-06T14:10:37.936Z,6.60
2018-12-06T14:13:05.461Z,6.50
2018-12-06T14:15:32.983Z,4.47
2018-12-06T14:18:00.651Z,6.90
2018-12-06T14:20:28.327Z,5.97
2018-12-06T14:22:55.837Z,5.23
2018-12-06T14:25:23.331Z,5.67
2018-12-06T14:27:50.828Z,6.03
2018-12-06T14:30:18.493Z,6.10
2018-12-06T14:32:45.987Z,5.63
2018-12-06T14:35:13.489Z,5.23
2018-12-06T14:37:41.008Z,5.90
2018-12-06T14:40:08.560Z,5.60
2018-12-06T14:42:36.051Z,5.57
2018-12-06T14:45:05.231Z,6.63
2018-12-06T14:47:32.935Z,6.00
2018-12-06T14:50:00.503Z,6.13
2018-12-06T14:52:28.066Z,6.17
2018-12-06T14:54:55.574Z,6.00
2018-12-06T14:57:23.063Z,5.87
2018-12-06T14:59:50.590Z,6.30
2018-12-06T15:02:18.088Z,6.37
2018-12-06T15:04:45.620Z,6.20
2018-12-06T15:07:13.129Z,6.80
2018-12-06T15:09:40.645Z,5.70
2018-12-06T15:12:08.155Z,6.70
2018-12-06T15:14:35.664Z,7.43
2018-12-06T15:17:03.154Z,6.63
2018-12-06T15:19:30.681Z,7.10
2018-12-06T15:21:58.180Z,6.20
2018-12-06T15:24:25.735Z,6.20
2018-12-06T15:26:53.269Z,6.27
2018-12-06T15:29:20.779Z,6.60
2018-12-06T15:31:48.277Z,6.93
2018-12-06T15:34:15.837Z,7.57
2018-12-06T15:36:43.326Z,7.43
2018-12-06T15:39:10.873Z,7.40
2018-12-06T15:41:38.408Z,8.17
2018-12-06T15:44:06.652Z,7.57
2018-12-06T15:46:34.193Z,7.77
2018-12-06T15:49:01.722Z,8.17
2018-12-06T15:51:29.215Z,7.93
2018-12-06T15:53:56.704Z,6.33
2018-12-06T15:56:24.224Z,8.17
2018-12-06T15:58:51.783Z,7.93
2018-12-06T16:01:19.292Z,8.83
2018-12-06T16:03:46.810Z,7.30
2018-12-06T16:06:14.302Z,9.03
2018-12-06T16:08:41.892Z,8.67
2018-12-06T16:11:09.400Z,7.83
2018-12-06T16:13:36.950Z,8.27
2018-12-06T16:16:04.519Z,8.10
2018-12-06T16:18:32.016Z,7.03
2018-12-06T16:20:59.520Z,6.33
2018-12-06T16:23:27.048Z,7.93
2018-12-06T16:25:54.549Z,6.77
2018-12-06T16:28:22.052Z,7.33
2018-12-06T16:30:49.577Z,6.37
2018-12-06T16:33:17.075Z,6.70
2018-12-06T16:35:48.247Z,7.07
2018-12-06T16:38:15.768Z,6.40
2018-12-06T16:40:43.261Z,7.33
2018-12-06T16:43:10.761Z,7.20
2018-12-06T16:45:38.283Z,6.63
2018-12-06T16:48:05.876Z,5.97
2018-12-06T16:50:33.465Z,6.70
2018-12-06T16:53:00.967Z,6.93
2018-12-06T16:55:28.507Z,6.00
2018-12-06T16:57:56.375Z,6.10
2018-12-06T17:00:23.996Z,6.03
2018-12-06T17:02:51.523Z,7.30
2018-12-06T17:05:19.007Z,7.23
2018-12-06T17:07:46.734Z,6.93
2018-12-06T17:10:14.507Z,6.60
2018-12-06T17:12:42.011Z,6.40
2018-12-06T17:15:09.652Z,6.57
2018-12-06T17:17:37.160Z,5.77
2018-12-06T17:20:06.185Z,5.80
2018-12-06T17:22:33.743Z,5.20
2018-12-06T17:25:01.227Z,5.77
2018-12-06T17:27:28.724Z,5.93
2018-12-06T17:29:56.296Z,5.00
2018-12-06T17:32:23.883Z,5.47
2018-12-06T17:34:51.610Z,5.00
2018-12-06T17:37:19.155Z,5.47
2018-12-06T17:39:46.644Z,5.13
2018-12-06T17:42:14.180Z,4.67
2018-12-06T17:44:42.397Z,6.10
2018-12-06T17:47:10.184Z,5.43
2018-12-06T17:49:37.960Z,5.50
2018-12-06T17:52:05.720Z,6.17
2018-12-06T17:54:33.657Z,5.80
2018-12-06T17:57:01.178Z,6.00
2018-12-06T17:59:28.756Z,5.93
2018-12-06T18:01:56.243Z,6.27
2018-12-06T18:04:23.806Z,4.80
2018-12-06T18:06:51.322Z,5.77
2018-12-06T18:09:18.840Z,6.60
2018-12-06T18:11:46.346Z,6.80
2018-12-06T18:14:13.891Z,5.70
2018-12-06T18:16:41.390Z,6.30
2018-12-06T18:19:08.898Z,6.77
2018-12-06T18:21:36.436Z,5.83
2018-12-06T18:24:04.072Z,6.00
2018-12-06T18:26:31.567Z,5.67
2018-12-06T18:28:59.102Z,6.00
2018-12-06T18:31:26.588Z,5.40
2018-12-06T18:33:54.087Z,6.57
2018-12-06T18:36:21.610Z,5.43
2018-12-06T18:38:49.099Z,4.80
2018-12-06T18:41:20.180Z,5.63
2018-12-06T18:43:47.735Z,5.13
2018-12-06T18:46:15.294Z,5.33
2018-12-06T18:48:42.923Z,5.60
2018-12-06T18:51:10.786Z,5.30
2018-12-06T18:53:39.070Z,5.60
2018-12-06T18:56:06.978Z,5.07
2018-12-06T18:58:34.765Z,5.13
2018-12-06T19:01:02.292Z,5.70
2018-12-06T19:03:30.067Z,4.60
2018-12-06T19:05:57.635Z,3.90
2018-12-06T19:08:25.428Z,4.97
2018-12-06T19:10:53.248Z,5.27
2018-12-06T19:13:20.832Z,5.60
2018-12-06T19:15:49.020Z,4.60
2018-12-06T19:18:17.171Z,5.10
2018-12-06T19:20:44.714Z,5.40
2018-12-06T19:23:12.227Z,5.43
2018-12-06T19:25:39.720Z,4.63
2018-12-06T19:28:07.308Z,4.83
2018-12-06T19:30:34.802Z,4.67
2018-12-06T19:33:03.334Z,4.13
2018-12-06T19:35:31.237Z,4.30
2018-12-06T19:37:59.120Z,3.90
2018-12-06T19:40:26.923Z,5.03
2018-12-06T19:42:54.525Z,5.50
2018-12-06T19:45:22.284Z,4.77
2018-12-06T19:47:50.073Z,5.40
2018-12-06T19:50:17.918Z,5.53
2018-12-06T19:52:45.741Z,5.63
2018-12-06T19:55:13.556Z,5.90
2018-12-06T19:57:41.424Z,5.00
2018-12-06T20:00:10.261Z,5.77
2018-12-06T20:02:39.080Z,5.37
2018-12-06T20:05:06.836Z,5.07
2018-12-06T20:07:34.607Z,5.20
2018-12-06T20:10:02.189Z,6.03
2018-12-06T20:12:29.724Z,5.10
2018-12-06T20:14:57.498Z,6.33
2018-12-06T20:17:25.060Z,6.30
2018-12-06T20:19:52.555Z,4.10
2018-12-06T20:22:20.048Z,5.60
2018-12-06T20:24:47.704Z,6.13
2018-12-06T20:27:15.501Z,6.53
2018-12-06T20:29:43.310Z,6.20
2018-12-06T20:32:14.608Z,6.57
2018-12-06T20:34:40.673Z,6.07
2018-12-06T20:37:08.263Z,6.60
2018-12-06T20:39:36.570Z,5.10
2018-12-06T20:42:04.106Z,6.30
2018-12-06T20:44:31.668Z,4.87
2018-12-06T20:46:59.156Z,7.33
2018-12-06T20:49:26.677Z,5.40
2018-12-06T20:51:54.597Z,5.80
2018-12-06T20:54:22.108Z,6.27
2018-12-06T20:56:52.339Z,6.03
2018-12-06T20:59:19.832Z,4.07
2018-12-06T21:01:47.333Z,4.53
2018-12-06T21:04:14.891Z,3.70
2018-12-06T21:06:42.479Z,4.50
2018-12-06T21:09:10.099Z,4.20
2018-12-06T21:11:37.659Z,4.57
2018-12-06T21:14:05.140Z,4.30
2018-12-06T21:16:32.655Z,5.07
2018-12-06T21:19:00.202Z,5.00
2018-12-06T21:21:27.688Z,4.43
2018-12-06T21:23:55.196Z,5.00
2018-12-06T21:26:22.782Z,4.80
2018-12-06T21:28:50.268Z,4.37
2018-12-06T21:31:17.757Z,4.37
2018-12-06T21:33:45.329Z,4.60
2018-12-06T21:36:12.816Z,4.50
2018-12-06T21:38:40.308Z,4.57
2018-12-06T21:41:07.811Z,4.10
2018-12-06T21:43:35.300Z,4.23
2018-12-06T21:46:02.882Z,4.40
2018-12-06T21:48:30.990Z,4.23
2018-12-06T21:50:58.481Z,4.33
2018-12-06T21:53:25.989Z,3.10
2018-12-06T21:55:53.473Z,3.30
2018-12-06T21:58:20.980Z,3.93
2018-12-06T22:00:48.546Z,4.10
2018-12-06T22:03:16.084Z,3.13
2018-12-06T22:05:43.570Z,3.37
2018-12-06T22:08:11.072Z,3.87
2018-12-06T22:10:38.621Z,2.97
2018-12-06T22:13:06.104Z,4.17
2018-12-06T22:15:33.643Z,3.60
2018-12-06T22:18:01.171Z,3.50
2018-12-06T22:20:28.693Z,4.17
2018-12-06T22:22:56.208Z,4.17
2018-12-06T22:25:23.691Z,4.37
2018-12-06T22:27:51.587Z,4.20
2018-12-06T22:30:19.152Z,3.80
2018-12-06T22:32:46.646Z,3.77
2018-12-06T22:35:14.142Z,3.97
2018-12-06T22:37:41.654Z,4.00
2018-12-06T22:40:09.224Z,4.07
2018-12-06T22:42:36.718Z,4.23
2018-12-06T22:45:18.827Z,4.37
2018-12-06T22:47:46.320Z,4.57
2018-12-06T22:50:13.869Z,4.43
2018-12-06T22:52:41.380Z,4.00
2018-12-06T22:55:09.144Z,4.03
2018-12-06T22:57:36.627Z,4.10
2018-12-06T23:00:07.291Z,4.23
2018-12-06T23:02:34.832Z,4.63
2018-12-06T23:05:02.379Z,4.87
2018-12-06T23:07:29.968Z,4.80
2018-12-06T23:09:57.467Z,4.40
2018-12-06T23:12:25.023Z,4.80
2018-12-06T23:14:52.631Z,3.87
2018-12-06T23:17:20.150Z,5.03
2018-12-06T23:19:47.639Z,4.80
2018-12-06T23:22:15.270Z,4.37
2018-12-06T23:24:42.931Z,4.77
2018-12-06T23:27:10.424Z,5.20
2018-12-06T23:29:37.924Z,5.30
2018-12-06T23:32:05.412Z,4.90
2018-12-06T23:34:33.081Z,4.63
2018-12-06T23:37:00.599Z,4.80
2018-12-06T23:39:28.091Z,5.30
2018-12-06T23:41:55.599Z,4.93
2018-12-06T23:44:23.096Z,5.60
2018-12-06T23:46:50.620Z,5.70
2018-12-06T23:49:18.111Z,5.50
2018-12-06T23:51:45.604Z,4.70
2018-12-06T23:54:13.149Z,5.03
2018-12-06T23:56:40.656Z,5.20
2018-12-06T23:59:08.203Z,4.53
